sensor_id;sensor_type;location;lat;lon;timestamp;temperature;humidity
52565;DHT22;38460;53.106;7.004;2022-11-23T00:00:28;6.90;99.90
52565;DHT22;38460;53.106;7.004;2022-11-23T00:02:57;6.90;99.90
52565;DHT22;38460;53.106;7.004;2022-11-23T00:05:24;6.80;99.90
52565;DHT22;38460;53.106;7.004;2022-11-23T00:07:50;6.90;99.90
52565;DHT22;38460;53.106;7.004;2022-11-23T00:10:17;6.90;99.90
52565;DHT22;38460;53.106;7.004;2022-11-23T00:12:43;6.90;99.90
52565;DHT22;38460;53.106;7.004;2022-11-23T00:15:10;6.90;99.90
52565;DHT22;38460;53.106;7.004;2022-11-23T00:17:37;6.90;99.90
52565;DHT22;38460;53.106;7.004;2022-11-23T00:20:03;6.90;99.90
52565;DHT22;38460;53.106;7.004;2022-11-23T00:22:29;6.90;99.90
52565;DHT22;38460;53.106;7.004;2022-11-23T00:24:55;6.90;99.90
52565;DHT22;38460;53.106;7.004;2022-11-23T00:27:20;6.90;99.90
52565;DHT22;38460;53.106;7.004;2022-11-23T00:29:46;6.90;99.90
52565;DHT22;38460;53.106;7.004;2022-11-23T00:32:12;7.00;99.90
52565;DHT22;38460;53.106;7.004;2022-11-23T00:34:37;6.90;99.90
52565;DHT22;38460;53.106;7.004;2022-11-23T00:37:03;7.00;99.90
52565;DHT22;38460;53.106;7.004;2022-11-23T00:39:29;6.90;99.90
52565;DHT22;38460;53.106;7.004;2022-11-23T00:41:55;7.00;99.90
52565;DHT22;38460;53.106;7.004;2022-11-23T00:44:20;7.00;99.90
52565;DHT22;38460;53.106;7.004;2022-11-23T00:46:46;7.00;99.90
52565;DHT22;38460;53.106;7.004;2022-11-23T00:49:12;7.00;99.90
52565;DHT22;38460;53.106;7.004;2022-11-23T00:51:37;7.00;99.90
52565;DHT22;38460;53.106;7.004;2022-11-23T00:54:04;7.00;99.90
52565;DHT22;38460;53.106;7.004;2022-11-23T00:56:31;7.00;99.90
52565;DHT22;38460;53.106;7.004;2022-11-23T00:58:58;7.00;99.90
52565;DHT22;38460;53.106;7.004;2022-11-23T01:01:29;7.10;99.90
52565;DHT22;38460;53.106;7.004;2022-11-23T01:03:59;7.00;99.90
52565;DHT22;38460;53.106;7.004;2022-11-23T01:06:27;7.00;99.90
52565;DHT22;38460;53.106;7.004;2022-11-23T01:09:03;7.10;99.90
52565;DHT22;38460;53.106;7.004;2022-11-23T01:11:31;7.10;99.90
52565;DHT22;38460;53.106;7.004;2022-11-23T01:13:57;7.10;99.90
52565;DHT22;38460;53.106;7.004;2022-11-23T01:16:31;7.10;99.90
52565;DHT22;38460;53.106;7.004;2022-11-23T01:19:00;7.10;99.90
52565;DHT22;38460;53.106;7.004;2022-11-23T01:21:27;7.10;99.90
52565;DHT22;38460;53.106;7.004;2022-11-23T01:23:53;7.10;99.90
52565;DHT22;38460;53.106;7.004;2022-11-23T01:26:19;7.10;99.90
52565;DHT22;38460;53.106;7.004;2022-11-23T01:28:46;6.90;99.90
52565;DHT22;38460;53.106;7.004;2022-11-23T01:31:17;7.10;99.90
52565;DHT22;38460;53.106;7.004;2022-11-23T01:33:43;7.10;99.90
52565;DHT22;38460;53.106;7.004;2022-11-23T01:36:14;7.10;99.90
52565;DHT22;38460;53.106;7.004;2022-11-23T01:38:41;7.10;99.90
52565;DHT22;38460;53.106;7.004;2022-11-23T01:41:11;7.10;99.90
52565;DHT22;38460;53.106;7.004;2022-11-23T01:43:37;7.20;99.90
52565;DHT22;38460;53.106;7.004;2022-11-23T01:46:04;7.10;99.90
52565;DHT22;38460;53.106;7.004;2022-11-23T01:48:50;7.20;99.90
52565;DHT22;38460;53.106;7.004;2022-11-23T01:51:32;7.20;99.90
52565;DHT22;38460;53.106;7.004;2022-11-23T01:54:27;7.20;99.90
52565;DHT22;38460;53.106;7.004;2022-11-23T01:57:00;7.20;99.90
52565;DHT22;38460;53.106;7.004;2022-11-23T01:59:29;7.30;99.90
52565;DHT22;38460;53.106;7.004;2022-11-23T02:01:55;7.20;99.90
52565;DHT22;38460;53.106;7.004;2022-11-23T02:04:28;7.20;99.90
52565;DHT22;38460;53.106;7.004;2022-11-23T02:06:56;7.20;99.90
52565;DHT22;38460;53.106;7.004;2022-11-23T02:09:24;7.20;99.90
52565;DHT22;38460;53.106;7.004;2022-11-23T02:11:51;7.20;99.90
52565;DHT22;38460;53.106;7.004;2022-11-23T02:14:17;7.20;99.90
52565;DHT22;38460;53.106;7.004;2022-11-23T02:16:42;7.20;99.90
52565;DHT22;38460;53.106;7.004;2022-11-23T02:19:18;7.20;99.90
52565;DHT22;38460;53.106;7.004;2022-11-23T02:21:47;7.30;99.90
52565;DHT22;38460;53.106;7.004;2022-11-23T02:24:27;7.20;99.90
52565;DHT22;38460;53.106;7.004;2022-11-23T02:26:55;7.30;99.90
52565;DHT22;38460;53.106;7.004;2022-11-23T02:29:23;7.30;99.90
52565;DHT22;38460;53.106;7.004;2022-11-23T02:31:49;7.30;99.90
52565;DHT22;38460;53.106;7.004;2022-11-23T02:34:16;7.30;99.90
52565;DHT22;38460;53.106;7.004;2022-11-23T02:36:44;7.40;99.90
52565;DHT22;38460;53.106;7.004;2022-11-23T02:39:59;7.30;99.90
52565;DHT22;38460;53.106;7.004;2022-11-23T02:42:17;7.30;99.90
52565;DHT22;38460;53.106;7.004;2022-11-23T02:47:21;7.30;99.90
52565;DHT22;38460;53.106;7.004;2022-11-23T02:49:47;7.30;99.90
52565;DHT22;38460;53.106;7.004;2022-11-23T02:52:14;7.30;99.90
52565;DHT22;38460;53.106;7.004;2022-11-23T02:54:40;7.30;99.90
52565;DHT22;38460;53.106;7.004;2022-11-23T02:57:06;7.30;99.90
52565;DHT22;38460;53.106;7.004;2022-11-23T02:59:33;7.30;99.90
52565;DHT22;38460;53.106;7.004;2022-11-23T03:02:03;7.30;99.90
52565;DHT22;38460;53.106;7.004;2022-11-23T03:04:29;7.30;99.90
52565;DHT22;38460;53.106;7.004;2022-11-23T03:06:55;7.30;99.90
52565;DHT22;38460;53.106;7.004;2022-11-23T03:09:21;7.40;99.90
52565;DHT22;38460;53.106;7.004;2022-11-23T03:11:46;7.40;99.90
52565;DHT22;38460;53.106;7.004;2022-11-23T03:14:14;7.50;99.90
52565;DHT22;38460;53.106;7.004;2022-11-23T03:16:40;7.40;99.90
52565;DHT22;38460;53.106;7.004;2022-11-23T03:19:06;7.40;99.90
52565;DHT22;38460;53.106;7.004;2022-11-23T03:21:31;7.30;99.90
52565;DHT22;38460;53.106;7.004;2022-11-23T03:23:57;7.30;99.90
52565;DHT22;38460;53.106;7.004;2022-11-23T03:26:23;7.40;99.90
52565;DHT22;38460;53.106;7.004;2022-11-23T03:28:49;7.40;99.90
52565;DHT22;38460;53.106;7.004;2022-11-23T03:31:14;7.40;99.90
52565;DHT22;38460;53.106;7.004;2022-11-23T03:33:40;7.30;99.90
52565;DHT22;38460;53.106;7.004;2022-11-23T03:36:06;7.30;99.90
52565;DHT22;38460;53.106;7.004;2022-11-23T03:38:32;7.40;99.90
52565;DHT22;38460;53.106;7.004;2022-11-23T03:40:58;7.40;99.90
52565;DHT22;38460;53.106;7.004;2022-11-23T03:43:23;7.40;99.90
52565;DHT22;38460;53.106;7.004;2022-11-23T03:45:49;7.40;99.90
52565;DHT22;38460;53.106;7.004;2022-11-23T03:48:15;7.30;99.90
52565;DHT22;38460;53.106;7.004;2022-11-23T03:50:41;7.40;99.90
52565;DHT22;38460;53.106;7.004;2022-11-23T03:53:08;7.40;99.90
52565;DHT22;38460;53.106;7.004;2022-11-23T03:55:34;7.40;99.90
52565;DHT22;38460;53.106;7.004;2022-11-23T03:57:59;7.40;99.90
52565;DHT22;38460;53.106;7.004;2022-11-23T04:00:29;7.40;99.90
52565;DHT22;38460;53.106;7.004;2022-11-23T04:02:55;7.40;99.90
52565;DHT22;38460;53.106;7.004;2022-11-23T04:05:21;7.40;99.90
52565;DHT22;38460;53.106;7.004;2022-11-23T04:07:48;7.40;99.90
52565;DHT22;38460;53.106;7.004;2022-11-23T04:10:17;7.40;99.90
52565;DHT22;38460;53.106;7.004;2022-11-23T04:12:44;7.40;99.90
52565;DHT22;38460;53.106;7.004;2022-11-23T04:15:10;7.40;99.90
52565;DHT22;38460;53.106;7.004;2022-11-23T04:17:36;7.40;99.90
52565;DHT22;38460;53.106;7.004;2022-11-23T04:20:03;7.40;99.90
52565;DHT22;38460;53.106;7.004;2022-11-23T04:22:29;7.40;99.90
52565;DHT22;38460;53.106;7.004;2022-11-23T04:24:54;7.40;99.90
52565;DHT22;38460;53.106;7.004;2022-11-23T04:27:20;7.40;99.90
52565;DHT22;38460;53.106;7.004;2022-11-23T04:29:46;7.40;99.90
52565;DHT22;38460;53.106;7.004;2022-11-23T04:32:11;7.40;99.90
52565;DHT22;38460;53.106;7.004;2022-11-23T04:34:37;7.40;99.90
52565;DHT22;38460;53.106;7.004;2022-11-23T04:37:03;7.40;99.90
52565;DHT22;38460;53.106;7.004;2022-11-23T04:39:29;7.60;99.90
52565;DHT22;38460;53.106;7.004;2022-11-23T04:41:54;7.40;99.90
52565;DHT22;38460;53.106;7.004;2022-11-23T04:44:20;7.40;99.90
52565;DHT22;38460;53.106;7.004;2022-11-23T04:46:46;7.40;99.90
52565;DHT22;38460;53.106;7.004;2022-11-23T04:49:12;7.40;99.90
52565;DHT22;38460;53.106;7.004;2022-11-23T04:51:38;7.40;99.90
52565;DHT22;38460;53.106;7.004;2022-11-23T04:54:04;7.40;99.90
52565;DHT22;38460;53.106;7.004;2022-11-23T04:56:29;7.40;99.90
52565;DHT22;38460;53.106;7.004;2022-11-23T04:58:55;7.40;99.90
52565;DHT22;38460;53.106;7.004;2022-11-23T05:01:21;7.40;99.90
52565;DHT22;38460;53.106;7.004;2022-11-23T05:03:46;7.40;99.90
52565;DHT22;38460;53.106;7.004;2022-11-23T05:06:12;7.50;99.90
52565;DHT22;38460;53.106;7.004;2022-11-23T05:08:38;7.40;99.90
52565;DHT22;38460;53.106;7.004;2022-11-23T05:11:04;7.40;99.90
52565;DHT22;38460;53.106;7.004;2022-11-23T05:13:30;7.50;99.90
52565;DHT22;38460;53.106;7.004;2022-11-23T05:15:55;7.40;99.90
52565;DHT22;38460;53.106;7.004;2022-11-23T05:18:21;7.50;99.90
52565;DHT22;38460;53.106;7.004;2022-11-23T05:20:47;7.50;99.90
52565;DHT22;38460;53.106;7.004;2022-11-23T05:23:12;7.50;99.90
52565;DHT22;38460;53.106;7.004;2022-11-23T05:25:38;7.50;99.90
52565;DHT22;38460;53.106;7.004;2022-11-23T05:28:04;7.50;99.90
52565;DHT22;38460;53.106;7.004;2022-11-23T05:30:30;7.50;99.90
52565;DHT22;38460;53.106;7.004;2022-11-23T05:33:00;7.50;99.90
52565;DHT22;38460;53.106;7.004;2022-11-23T05:35:26;7.50;99.90
52565;DHT22;38460;53.106;7.004;2022-11-23T05:37:52;7.50;99.90
52565;DHT22;38460;53.106;7.004;2022-11-23T05:40:18;7.50;99.90
52565;DHT22;38460;53.106;7.004;2022-11-23T05:42:43;7.50;99.90
52565;DHT22;38460;53.106;7.004;2022-11-23T05:45:09;7.50;99.90
52565;DHT22;38460;53.106;7.004;2022-11-23T05:47:35;7.50;99.90
52565;DHT22;38460;53.106;7.004;2022-11-23T05:50:01;7.50;99.90
52565;DHT22;38460;53.106;7.004;2022-11-23T05:52:26;7.50;99.90
52565;DHT22;38460;53.106;7.004;2022-11-23T05:54:52;7.50;99.90
52565;DHT22;38460;53.106;7.004;2022-11-23T05:57:18;7.50;99.90
52565;DHT22;38460;53.106;7.004;2022-11-23T05:59:44;7.50;99.90
52565;DHT22;38460;53.106;7.004;2022-11-23T06:02:10;7.60;99.90
52565;DHT22;38460;53.106;7.004;2022-11-23T06:04:36;7.60;99.90
52565;DHT22;38460;53.106;7.004;2022-11-23T06:07:02;7.60;99.90
52565;DHT22;38460;53.106;7.004;2022-11-23T06:09:27;7.60;99.90
52565;DHT22;38460;53.106;7.004;2022-11-23T06:11:53;7.60;99.90
52565;DHT22;38460;53.106;7.004;2022-11-23T06:14:19;7.60;99.90
52565;DHT22;38460;53.106;7.004;2022-11-23T06:16:45;7.60;99.90
52565;DHT22;38460;53.106;7.004;2022-11-23T06:19:10;7.60;99.90
52565;DHT22;38460;53.106;7.004;2022-11-23T06:21:36;7.60;99.90
52565;DHT22;38460;53.106;7.004;2022-11-23T06:24:02;7.60;99.90
52565;DHT22;38460;53.106;7.004;2022-11-23T06:26:28;7.50;99.90
52565;DHT22;38460;53.106;7.004;2022-11-23T06:28:53;7.50;99.90
52565;DHT22;38460;53.106;7.004;2022-11-23T06:31:19;7.60;99.90
52565;DHT22;38460;53.106;7.004;2022-11-23T06:33:45;7.50;99.90
52565;DHT22;38460;53.106;7.004;2022-11-23T06:36:10;7.50;99.90
52565;DHT22;38460;53.106;7.004;2022-11-23T06:38:36;7.50;99.90
52565;DHT22;38460;53.106;7.004;2022-11-23T06:41:03;7.50;99.90
52565;DHT22;38460;53.106;7.004;2022-11-23T06:43:29;7.50;99.90
52565;DHT22;38460;53.106;7.004;2022-11-23T06:45:55;7.50;99.90
52565;DHT22;38460;53.106;7.004;2022-11-23T06:48:22;7.40;99.90
52565;DHT22;38460;53.106;7.004;2022-11-23T06:50:48;7.40;99.90
52565;DHT22;38460;53.106;7.004;2022-11-23T06:53:14;7.40;99.90
52565;DHT22;38460;53.106;7.004;2022-11-23T06:55:40;7.40;99.90
52565;DHT22;38460;53.106;7.004;2022-11-23T06:58:06;7.40;99.90
52565;DHT22;38460;53.106;7.004;2022-11-23T07:00:32;7.60;99.90
52565;DHT22;38460;53.106;7.004;2022-11-23T07:02:58;7.50;99.90
52565;DHT22;38460;53.106;7.004;2022-11-23T07:05:25;7.40;99.90
52565;DHT22;38460;53.106;7.004;2022-11-23T07:07:51;7.30;99.90
52565;DHT22;38460;53.106;7.004;2022-11-23T07:10:18;7.40;99.90
52565;DHT22;38460;53.106;7.004;2022-11-23T07:12:44;7.40;99.90
52565;DHT22;38460;53.106;7.004;2022-11-23T07:15:10;7.40;99.90
52565;DHT22;38460;53.106;7.004;2022-11-23T07:17:40;7.40;99.90
52565;DHT22;38460;53.106;7.004;2022-11-23T07:20:10;7.30;99.90
52565;DHT22;38460;53.106;7.004;2022-11-23T07:22:36;7.30;99.90
52565;DHT22;38460;53.106;7.004;2022-11-23T07:25:02;7.40;99.90
52565;DHT22;38460;53.106;7.004;2022-11-23T07:27:28;7.40;99.90
52565;DHT22;38460;53.106;7.004;2022-11-23T07:29:54;7.40;99.90
52565;DHT22;38460;53.106;7.004;2022-11-23T07:32:20;7.30;99.90
52565;DHT22;38460;53.106;7.004;2022-11-23T07:34:45;7.30;99.90
52565;DHT22;38460;53.106;7.004;2022-11-23T07:37:11;7.30;99.90
52565;DHT22;38460;53.106;7.004;2022-11-23T07:39:37;7.30;99.90
52565;DHT22;38460;53.106;7.004;2022-11-23T07:42:02;7.40;99.90
52565;DHT22;38460;53.106;7.004;2022-11-23T07:44:28;7.40;99.90
52565;DHT22;38460;53.106;7.004;2022-11-23T07:46:54;7.30;99.90
52565;DHT22;38460;53.106;7.004;2022-11-23T07:49:20;7.40;99.90
52565;DHT22;38460;53.106;7.004;2022-11-23T07:51:46;7.40;99.90
52565;DHT22;38460;53.106;7.004;2022-11-23T07:54:12;7.40;99.90
52565;DHT22;38460;53.106;7.004;2022-11-23T07:56:37;7.40;99.90
52565;DHT22;38460;53.106;7.004;2022-11-23T07:59:03;7.40;99.90
52565;DHT22;38460;53.106;7.004;2022-11-23T08:01:29;7.40;99.90
52565;DHT22;38460;53.106;7.004;2022-11-23T08:03:56;7.40;99.90
52565;DHT22;38460;53.106;7.004;2022-11-23T08:06:22;7.40;99.90
52565;DHT22;38460;53.106;7.004;2022-11-23T08:08:47;7.40;99.90
52565;DHT22;38460;53.106;7.004;2022-11-23T08:11:13;7.40;99.90
52565;DHT22;38460;53.106;7.004;2022-11-23T08:13:41;7.40;99.90
52565;DHT22;38460;53.106;7.004;2022-11-23T08:16:07;7.40;99.90
52565;DHT22;38460;53.106;7.004;2022-11-23T08:18:33;7.40;99.90
52565;DHT22;38460;53.106;7.004;2022-11-23T08:20:59;7.40;99.90
52565;DHT22;38460;53.106;7.004;2022-11-23T08:23:25;7.50;99.90
52565;DHT22;38460;53.106;7.004;2022-11-23T08:25:51;7.40;99.90
52565;DHT22;38460;53.106;7.004;2022-11-23T08:28:17;7.50;99.90
52565;DHT22;38460;53.106;7.004;2022-11-23T08:30:43;7.50;99.90
52565;DHT22;38460;53.106;7.004;2022-11-23T08:33:09;7.50;99.90
52565;DHT22;38460;53.106;7.004;2022-11-23T08:35:36;7.50;99.90
52565;DHT22;38460;53.106;7.004;2022-11-23T08:38:06;7.50;99.90
52565;DHT22;38460;53.106;7.004;2022-11-23T08:40:32;7.50;99.90
52565;DHT22;38460;53.106;7.004;2022-11-23T08:42:58;7.60;99.90
52565;DHT22;38460;53.106;7.004;2022-11-23T08:45:24;7.60;99.90
52565;DHT22;38460;53.106;7.004;2022-11-23T08:47:50;7.60;99.90
52565;DHT22;38460;53.106;7.004;2022-11-23T08:50:16;7.60;99.90
52565;DHT22;38460;53.106;7.004;2022-11-23T08:52:42;7.70;99.90
52565;DHT22;38460;53.106;7.004;2022-11-23T08:55:08;7.70;99.90
52565;DHT22;38460;53.106;7.004;2022-11-23T08:57:34;7.70;99.90
52565;DHT22;38460;53.106;7.004;2022-11-23T09:00:00;7.80;99.90
52565;DHT22;38460;53.106;7.004;2022-11-23T09:02:26;7.80;99.90
52565;DHT22;38460;53.106;7.004;2022-11-23T09:04:52;7.80;99.90
52565;DHT22;38460;53.106;7.004;2022-11-23T09:07:17;7.90;99.90
52565;DHT22;38460;53.106;7.004;2022-11-23T09:09:43;7.90;99.90
52565;DHT22;38460;53.106;7.004;2022-11-23T09:12:09;7.90;99.90
52565;DHT22;38460;53.106;7.004;2022-11-23T09:14:34;7.90;99.90
52565;DHT22;38460;53.106;7.004;2022-11-23T09:17:01;7.90;99.90
52565;DHT22;38460;53.106;7.004;2022-11-23T09:19:27;8.00;99.90
52565;DHT22;38460;53.106;7.004;2022-11-23T09:21:52;8.00;99.90
52565;DHT22;38460;53.106;7.004;2022-11-23T09:24:19;8.00;99.90
52565;DHT22;38460;53.106;7.004;2022-11-23T09:26:45;8.00;99.90
52565;DHT22;38460;53.106;7.004;2022-11-23T09:29:10;8.10;99.90
52565;DHT22;38460;53.106;7.004;2022-11-23T09:31:37;8.10;99.90
52565;DHT22;38460;53.106;7.004;2022-11-23T09:34:03;8.10;99.90
52565;DHT22;38460;53.106;7.004;2022-11-23T09:36:29;8.20;99.90
52565;DHT22;38460;53.106;7.004;2022-11-23T09:38:55;8.20;99.90
52565;DHT22;38460;53.106;7.004;2022-11-23T09:41:41;8.20;99.90
52565;DHT22;38460;53.106;7.004;2022-11-23T09:44:31;8.20;99.90
52565;DHT22;38460;53.106;7.004;2022-11-23T09:50:09;8.30;99.90
52565;DHT22;38460;53.106;7.004;2022-11-23T09:52:43;8.30;99.90
52565;DHT22;38460;53.106;7.004;2022-11-23T09:55:18;8.30;99.90
52565;DHT22;38460;53.106;7.004;2022-11-23T09:57:46;8.30;99.90
52565;DHT22;38460;53.106;7.004;2022-11-23T10:00:19;8.40;99.90
52565;DHT22;38460;53.106;7.004;2022-11-23T10:02:46;8.40;99.90
52565;DHT22;38460;53.106;7.004;2022-11-23T10:05:38;8.50;99.90
52565;DHT22;38460;53.106;7.004;2022-11-23T10:23:00;8.50;99.90
52565;DHT22;38460;53.106;7.004;2022-11-23T10:25:49;8.50;99.90
52565;DHT22;38460;53.106;7.004;2022-11-23T10:28:18;8.50;99.90
52565;DHT22;38460;53.106;7.004;2022-11-23T10:33:35;8.50;99.90
52565;DHT22;38460;53.106;7.004;2022-11-23T10:36:03;8.50;99.90
52565;DHT22;38460;53.106;7.004;2022-11-23T10:38:29;8.50;99.90
52565;DHT22;38460;53.106;7.004;2022-11-23T10:43:24;8.50;99.90
52565;DHT22;38460;53.106;7.004;2022-11-23T10:48:53;8.50;99.90
52565;DHT22;38460;53.106;7.004;2022-11-23T10:51:31;8.50;99.90
52565;DHT22;38460;53.106;7.004;2022-11-23T10:54:03;8.60;99.90
52565;DHT22;38460;53.106;7.004;2022-11-23T10:56:30;8.60;99.90
52565;DHT22;38460;53.106;7.004;2022-11-23T10:58:57;8.60;99.90
52565;DHT22;38460;53.106;7.004;2022-11-23T11:01:25;8.60;99.90
52565;DHT22;38460;53.106;7.004;2022-11-23T11:03:53;8.70;99.90
52565;DHT22;38460;53.106;7.004;2022-11-23T11:06:30;8.70;99.90
52565;DHT22;38460;53.106;7.004;2022-11-23T11:09:02;8.70;99.90
52565;DHT22;38460;53.106;7.004;2022-11-23T11:11:32;8.70;99.90
52565;DHT22;38460;53.106;7.004;2022-11-23T11:14:19;8.80;99.90
52565;DHT22;38460;53.106;7.004;2022-11-23T11:16:50;8.70;99.90
52565;DHT22;38460;53.106;7.004;2022-11-23T11:19:30;8.70;99.90
52565;DHT22;38460;53.106;7.004;2022-11-23T11:21:57;8.70;99.90
52565;DHT22;38460;53.106;7.004;2022-11-23T11:24:36;8.70;99.90
52565;DHT22;38460;53.106;7.004;2022-11-23T11:27:11;8.70;99.90
52565;DHT22;38460;53.106;7.004;2022-11-23T11:32:20;8.80;99.90
52565;DHT22;38460;53.106;7.004;2022-11-23T11:39:53;8.90;99.90
52565;DHT22;38460;53.106;7.004;2022-11-23T11:42:51;8.90;99.90
52565;DHT22;38460;53.106;7.004;2022-11-23T11:45:23;9.10;99.90
52565;DHT22;38460;53.106;7.004;2022-11-23T11:48:23;9.20;99.90
52565;DHT22;38460;53.106;7.004;2022-11-23T11:51:04;9.20;99.90
52565;DHT22;38460;53.106;7.004;2022-11-23T11:53:40;9.30;99.90
52565;DHT22;38460;53.106;7.004;2022-11-23T11:56:28;9.40;99.90
52565;DHT22;38460;53.106;7.004;2022-11-23T11:58:58;9.40;99.90
52565;DHT22;38460;53.106;7.004;2022-11-23T12:04:40;9.60;99.90
52565;DHT22;38460;53.106;7.004;2022-11-23T12:07:35;9.60;99.90
52565;DHT22;38460;53.106;7.004;2022-11-23T12:10:09;9.70;99.90
52565;DHT22;38460;53.106;7.004;2022-11-23T12:12:37;9.70;99.90
52565;DHT22;38460;53.106;7.004;2022-11-23T12:15:04;9.80;99.90
52565;DHT22;38460;53.106;7.004;2022-11-23T12:20:39;9.90;99.90
52565;DHT22;38460;53.106;7.004;2022-11-23T12:28:46;9.90;99.90
52565;DHT22;38460;53.106;7.004;2022-11-23T12:31:38;10.00;99.90
52565;DHT22;38460;53.106;7.004;2022-11-23T12:37:10;10.00;99.90
52565;DHT22;38460;53.106;7.004;2022-11-23T12:42:11;10.00;99.90
52565;DHT22;38460;53.106;7.004;2022-11-23T12:47:46;10.00;99.90
52565;DHT22;38460;53.106;7.004;2022-11-23T12:50:39;10.00;99.90
52565;DHT22;38460;53.106;7.004;2022-11-23T12:56:06;10.00;99.90
52565;DHT22;38460;53.106;7.004;2022-11-23T12:58:37;10.00;99.90
52565;DHT22;38460;53.106;7.004;2022-11-23T13:01:15;10.10;99.90
52565;DHT22;38460;53.106;7.004;2022-11-23T13:20:48;10.00;99.90
52565;DHT22;38460;53.106;7.004;2022-11-23T13:23:19;9.90;99.90
52565;DHT22;38460;53.106;7.004;2022-11-23T13:26:21;9.90;99.90
52565;DHT22;38460;53.106;7.004;2022-11-23T13:28:49;9.90;99.90
52565;DHT22;38460;53.106;7.004;2022-11-23T13:33:46;9.90;99.90
52565;DHT22;38460;53.106;7.004;2022-11-23T13:36:41;9.90;99.90
52565;DHT22;38460;53.106;7.004;2022-11-23T13:42:09;9.90;99.90
52565;DHT22;38460;53.106;7.004;2022-11-23T13:44:35;9.90;99.90
52565;DHT22;38460;53.106;7.004;2022-11-23T13:47:05;9.90;99.90
52565;DHT22;38460;53.106;7.004;2022-11-23T13:49:41;9.80;99.90
52565;DHT22;38460;53.106;7.004;2022-11-23T13:57:45;9.80;99.90
52565;DHT22;38460;53.106;7.004;2022-11-23T14:11:57;9.60;99.90
52565;DHT22;38460;53.106;7.004;2022-11-23T14:20:19;9.10;99.90
52565;DHT22;38460;53.106;7.004;2022-11-23T14:29:25;9.30;99.90
52565;DHT22;38460;53.106;7.004;2022-11-23T14:42:53;9.00;99.90
52565;DHT22;38460;53.106;7.004;2022-11-23T14:45:22;9.00;99.90
52565;DHT22;38460;53.106;7.004;2022-11-23T14:47:49;8.90;99.90
52565;DHT22;38460;53.106;7.004;2022-11-23T14:52:48;8.80;99.90
52565;DHT22;38460;53.106;7.004;2022-11-23T14:55:18;8.80;99.90
52565;DHT22;38460;53.106;7.004;2022-11-23T14:57:46;8.80;99.90
52565;DHT22;38460;53.106;7.004;2022-11-23T15:00:38;8.70;99.90
52565;DHT22;38460;53.106;7.004;2022-11-23T15:03:08;8.70;99.90
52565;DHT22;38460;53.106;7.004;2022-11-23T15:05:42;8.70;99.90
52565;DHT22;38460;53.106;7.004;2022-11-23T15:08:30;8.60;99.90
52565;DHT22;38460;53.106;7.004;2022-11-23T15:11:06;8.60;99.90
52565;DHT22;38460;53.106;7.004;2022-11-23T15:13:46;8.60;99.90
52565;DHT22;38460;53.106;7.004;2022-11-23T15:16:13;8.50;99.90
52565;DHT22;38460;53.106;7.004;2022-11-23T15:18:40;8.50;99.90
52565;DHT22;38460;53.106;7.004;2022-11-23T15:23:43;8.50;99.90
52565;DHT22;38460;53.106;7.004;2022-11-23T15:28:46;8.40;99.90
52565;DHT22;38460;53.106;7.004;2022-11-23T15:33:53;8.30;99.90
52565;DHT22;38460;53.106;7.004;2022-11-23T15:36:31;8.30;99.90
52565;DHT22;38460;53.106;7.004;2022-11-23T15:38:59;8.20;99.90
52565;DHT22;38460;53.106;7.004;2022-11-23T15:41:27;8.20;99.90
52565;DHT22;38460;53.106;7.004;2022-11-23T15:43:59;8.10;99.90
52565;DHT22;38460;53.106;7.004;2022-11-23T15:46:28;8.10;99.90
52565;DHT22;38460;53.106;7.004;2022-11-23T15:49:02;8.10;99.90
52565;DHT22;38460;53.106;7.004;2022-11-23T15:51:30;8.00;99.90
52565;DHT22;38460;53.106;7.004;2022-11-23T15:54:00;8.00;99.90
52565;DHT22;38460;53.106;7.004;2022-11-23T15:56:29;7.90;99.90
52565;DHT22;38460;53.106;7.004;2022-11-23T15:59:17;8.00;99.90
52565;DHT22;38460;53.106;7.004;2022-11-23T16:01:44;8.00;99.90
52565;DHT22;38460;53.106;7.004;2022-11-23T16:04:43;8.00;99.90
52565;DHT22;38460;53.106;7.004;2022-11-23T16:07:19;8.00;99.90
52565;DHT22;38460;53.106;7.004;2022-11-23T16:09:48;8.10;99.90
52565;DHT22;38460;53.106;7.004;2022-11-23T16:12:28;8.00;99.90
52565;DHT22;38460;53.106;7.004;2022-11-23T16:14:56;8.10;99.90
52565;DHT22;38460;53.106;7.004;2022-11-23T16:17:27;8.10;99.90
52565;DHT22;38460;53.106;7.004;2022-11-23T16:19:58;8.10;99.90
52565;DHT22;38460;53.106;7.004;2022-11-23T16:22:32;8.10;99.90
52565;DHT22;38460;53.106;7.004;2022-11-23T16:25:14;8.10;99.90
52565;DHT22;38460;53.106;7.004;2022-11-23T16:27:41;8.10;99.90
52565;DHT22;38460;53.106;7.004;2022-11-23T16:30:25;8.10;99.90
52565;DHT22;38460;53.106;7.004;2022-11-23T16:32:51;8.10;99.90
52565;DHT22;38460;53.106;7.004;2022-11-23T16:35:19;8.10;99.90
52565;DHT22;38460;53.106;7.004;2022-11-23T16:37:45;8.10;99.90
52565;DHT22;38460;53.106;7.004;2022-11-23T16:40:12;8.10;99.90
52565;DHT22;38460;53.106;7.004;2022-11-23T16:42:38;8.10;99.90
52565;DHT22;38460;53.106;7.004;2022-11-23T16:45:05;8.10;99.90
52565;DHT22;38460;53.106;7.004;2022-11-23T16:47:31;8.10;99.90
52565;DHT22;38460;53.106;7.004;2022-11-23T16:49:57;8.10;99.90
52565;DHT22;38460;53.106;7.004;2022-11-23T16:52:23;8.10;99.90
52565;DHT22;38460;53.106;7.004;2022-11-23T16:54:49;8.10;99.90
52565;DHT22;38460;53.106;7.004;2022-11-23T16:59:50;8.10;99.90
52565;DHT22;38460;53.106;7.004;2022-11-23T17:02:15;8.00;99.90
52565;DHT22;38460;53.106;7.004;2022-11-23T17:04:42;8.00;99.90
52565;DHT22;38460;53.106;7.004;2022-11-23T17:07:08;8.00;99.90
52565;DHT22;38460;53.106;7.004;2022-11-23T17:09:33;8.00;99.90
52565;DHT22;38460;53.106;7.004;2022-11-23T17:11:59;8.00;99.90
52565;DHT22;38460;53.106;7.004;2022-11-23T17:14:26;8.00;99.90
52565;DHT22;38460;53.106;7.004;2022-11-23T17:16:52;8.00;99.90
52565;DHT22;38460;53.106;7.004;2022-11-23T17:19:19;8.00;99.90
52565;DHT22;38460;53.106;7.004;2022-11-23T17:21:45;8.00;99.90
52565;DHT22;38460;53.106;7.004;2022-11-23T17:24:11;7.90;99.90
52565;DHT22;38460;53.106;7.004;2022-11-23T17:26:49;7.90;99.90
52565;DHT22;38460;53.106;7.004;2022-11-23T17:29:19;7.90;99.90
52565;DHT22;38460;53.106;7.004;2022-11-23T17:31:46;7.90;99.90
52565;DHT22;38460;53.106;7.004;2022-11-23T17:34:13;7.90;99.90
52565;DHT22;38460;53.106;7.004;2022-11-23T17:36:39;7.90;99.90
52565;DHT22;38460;53.106;7.004;2022-11-23T17:39:05;7.90;99.90
52565;DHT22;38460;53.106;7.004;2022-11-23T17:41:31;7.90;99.90
52565;DHT22;38460;53.106;7.004;2022-11-23T17:43:57;7.90;99.90
52565;DHT22;38460;53.106;7.004;2022-11-23T17:46:25;7.90;99.90
52565;DHT22;38460;53.106;7.004;2022-11-23T17:48:56;7.90;99.90
52565;DHT22;38460;53.106;7.004;2022-11-23T17:51:23;7.90;99.90
52565;DHT22;38460;53.106;7.004;2022-11-23T17:53:49;7.80;99.90
52565;DHT22;38460;53.106;7.004;2022-11-23T17:56:25;7.80;99.90
52565;DHT22;38460;53.106;7.004;2022-11-23T17:58:51;7.80;99.90
52565;DHT22;38460;53.106;7.004;2022-11-23T18:01:18;7.80;99.90
52565;DHT22;38460;53.106;7.004;2022-11-23T18:03:45;7.70;99.90
52565;DHT22;38460;53.106;7.004;2022-11-23T18:08:41;7.70;99.90
52565;DHT22;38460;53.106;7.004;2022-11-23T18:11:07;7.60;99.90
52565;DHT22;38460;53.106;7.004;2022-11-23T18:13:33;7.60;99.90